createdAt,value
2023-05-20T00:01:03.838Z,100811.25
2023-05-20T00:03:31.711Z,100815.00
2023-05-20T00:05:59.362Z,100806.31
2023-05-20T00:08:27.090Z,100811.66
2023-05-20T00:10:54.729Z,100813.34
2023-05-20T00:13:24.360Z,100809.09
2023-05-20T00:15:53.444Z,100815.13
2023-05-20T00:18:21.077Z,100809.97
2023-05-20T00:20:49.001Z,100808.25
2023-05-20T00:23:16.580Z,100816.09
2023-05-20T00:25:44.264Z,100801.28
2023-05-20T00:28:11.899Z,100795.94
2023-05-20T00:30:42.015Z,100815.28
2023-05-20T00:33:09.754Z,100804.75
2023-05-20T00:35:37.413Z,100815.28
2023-05-20T00:38:05.210Z,100811.94
2023-05-20T00:40:32.895Z,100802.09
2023-05-20T00:43:00.621Z,100794.91
2023-05-20T00:45:28.785Z,100815.13
2023-05-20T00:47:59.845Z,100820.44
2023-05-20T00:50:28.502Z,100817.78
2023-05-20T00:52:56.251Z,100813.41
2023-05-20T00:55:24.316Z,100818.66
2023-05-20T00:57:54.333Z,100814.13
2023-05-20T01:00:22.464Z,100814.25
2023-05-20T01:02:50.335Z,100818.56
2023-05-20T01:05:18.368Z,100797.63
2023-05-20T01:07:46.600Z,100809.97
2023-05-20T01:10:14.452Z,100796.00
2023-05-20T01:12:57.122Z,100803.19
2023-05-20T01:15:28.172Z,100807.47
2023-05-20T01:18:01.985Z,100805.69
2023-05-20T01:20:32.675Z,100803.03
2023-05-20T01:23:00.583Z,100807.47
2023-05-20T01:25:28.351Z,100810.94
2023-05-20T01:27:58.083Z,100811.81
2023-05-20T01:30:32.932Z,100807.53
2023-05-20T01:33:07.820Z,100814.25
2023-05-20T01:35:36.964Z,100821.03
2023-05-20T01:38:06.773Z,100818.22
2023-05-20T01:40:36.364Z,100823.38
2023-05-20T01:43:04.677Z,100825.03
2023-05-20T01:45:32.615Z,100820.69
2023-05-20T01:48:01.998Z,100825.72
2023-05-20T01:50:29.940Z,100820.63
2023-05-20T01:52:57.619Z,100825.03
2023-05-20T01:55:26.206Z,100825.72
2023-05-20T01:57:53.917Z,100815.13
2023-05-20T02:00:22.737Z,100820.41
2023-05-20T02:02:50.648Z,100815.13
2023-05-20T02:05:18.374Z,100827.47
2023-05-20T02:07:46.289Z,100814.31
2023-05-20T02:10:14.300Z,100825.03
2023-05-20T02:12:42.606Z,100811.94
2023-05-20T02:15:10.912Z,100821.78
2023-05-20T02:17:39.975Z,100823.66
2023-05-20T02:20:27.687Z,100808.91
2023-05-20T02:22:55.575Z,100818.66
2023-05-20T02:25:23.208Z,100817.78
2023-05-20T02:27:50.939Z,100821.31
2023-05-20T02:30:18.562Z,100809.91
2023-05-20T02:32:46.908Z,100817.03
2023-05-20T02:35:15.058Z,100828.34
2023-05-20T02:37:44.801Z,100831.91
2023-05-20T02:40:12.535Z,100817.03
2023-05-20T02:42:41.390Z,100826.75
2023-05-20T02:45:09.536Z,100822.47
2023-05-20T02:47:37.283Z,100825.09
2023-05-20T02:50:07.265Z,100813.69
2023-05-20T02:52:35.327Z,100819.91
2023-05-20T02:55:04.233Z,100825.88
2023-05-20T02:57:34.178Z,100824.22
2023-05-20T03:00:01.954Z,100812.00
2023-05-20T03:02:34.689Z,100829.50
2023-05-20T03:05:02.789Z,100830.38
2023-05-20T03:07:38.865Z,100833.06
2023-05-20T03:10:08.664Z,100825.16
2023-05-20T03:12:36.521Z,100816.16
2023-05-20T03:15:04.372Z,100826.75
2023-05-20T03:17:33.977Z,100824.22
2023-05-20T03:20:02.037Z,100816.34
2023-05-20T03:22:33.322Z,100828.56
2023-05-20T03:25:02.578Z,100832.91
2023-05-20T03:27:37.002Z,100824.22
2023-05-20T03:30:05.608Z,100834.59
2023-05-20T03:32:34.791Z,100831.16
2023-05-20T03:35:03.359Z,100839.81
2023-05-20T03:37:32.919Z,100832.78
2023-05-20T03:40:00.841Z,100830.22
2023-05-20T03:42:29.770Z,100811.88
2023-05-20T03:44:57.546Z,100825.06
2023-05-20T03:47:28.330Z,100842.47
2023-05-20T03:49:56.241Z,100829.66
2023-05-20T03:52:24.193Z,100826.28
2023-05-20T03:54:52.387Z,100830.72
2023-05-20T03:57:20.060Z,100809.16
2023-05-20T03:59:48.149Z,100823.16
2023-05-20T04:02:16.505Z,100824.03
2023-05-20T04:04:44.765Z,100831.06
2023-05-20T04:07:12.475Z,100830.34
2023-05-20T04:09:40.822Z,100840.03
2023-05-20T04:12:08.627Z,100822.84
2023-05-20T04:14:36.311Z,100825.97
2023-05-20T04:17:05.017Z,100822.44
2023-05-20T04:19:34.978Z,100833.03
2023-05-20T04:22:03.155Z,100839.81
2023-05-20T04:24:31.979Z,100838.03
2023-05-20T04:26:59.760Z,100838.97
2023-05-20T04:29:30.197Z,100838.19
2023-05-20T04:31:58.953Z,100822.50
2023-05-20T04:34:30.202Z,100819.31
2023-05-20T04:36:58.119Z,100820.31
2023-05-20T04:39:27.079Z,100823.03
2023-05-20T04:41:57.445Z,100834.66
2023-05-20T04:44:26.638Z,100833.94
2023-05-20T04:46:54.389Z,100837.63
2023-05-20T04:49:22.017Z,100822.13
2023-05-20T04:51:50.225Z,100822.50
2023-05-20T04:54:20.434Z,100829.16
2023-05-20T04:56:48.576Z,100826.91
2023-05-20T04:59:16.444Z,100831.69
2023-05-20T05:01:44.264Z,100822.53
2023-05-20T05:04:12.163Z,100811.13
2023-05-20T05:06:40.058Z,100821.44
2023-05-20T05:09:08.267Z,100819.91
2023-05-20T05:11:39.350Z,100822.31
2023-05-20T05:14:07.440Z,100829.03
2023-05-20T05:16:35.923Z,100814.81
2023-05-20T05:19:03.833Z,100810.97
2023-05-20T05:21:35.150Z,100820.25
2023-05-20T05:24:02.980Z,100813.69
2023-05-20T05:26:31.098Z,100803.63
2023-05-20T05:28:58.811Z,100825.91
2023-05-20T05:31:26.653Z,100820.34
2023-05-20T05:33:54.663Z,100822.34
2023-05-20T05:36:25.120Z,100819.28
2023-05-20T05:38:53.170Z,100813.75
2023-05-20T05:41:21.849Z,100814.72
2023-05-20T05:43:49.925Z,100813.16
2023-05-20T05:46:17.771Z,100789.59
2023-05-20T05:48:48.992Z,100810.09
2023-05-20T05:51:17.959Z,100805.44
2023-05-20T05:53:46.325Z,100805.22
2023-05-20T05:56:14.417Z,100798.50
2023-05-20T05:58:42.517Z,100801.38
2023-05-20T06:01:10.176Z,100796.94
2023-05-20T06:03:37.863Z,100801.44
2023-05-20T06:06:05.693Z,100805.19
2023-05-20T06:08:34.471Z,100803.75
2023-05-20T06:11:03.362Z,100811.94
2023-05-20T06:13:31.686Z,100804.41
2023-05-20T06:15:59.456Z,100809.81
2023-05-20T06:18:27.561Z,100804.06
2023-05-20T06:21:00.883Z,100821.28
2023-05-20T06:23:28.682Z,100812.31
2023-05-20T06:26:00.968Z,100817.19
2023-05-20T06:28:30.157Z,100806.91
2023-05-20T06:30:58.533Z,100814.09
2023-05-20T06:33:28.814Z,100811.63
2023-05-20T06:36:03.656Z,100811.19
2023-05-20T06:38:31.617Z,100802.81
2023-05-20T06:40:59.223Z,100811.22
2023-05-20T06:43:26.886Z,100814.09
2023-05-20T06:46:05.579Z,100803.84
2023-05-20T06:48:43.935Z,100810.25
2023-05-20T06:51:12.131Z,100808.91
2023-05-20T06:53:40.627Z,100791.59
2023-05-20T06:56:08.388Z,100787.66
2023-05-20T06:58:35.985Z,100799.41
2023-05-20T07:01:03.636Z,100792.44
2023-05-20T07:03:32.093Z,100800.16
2023-05-20T07:05:59.948Z,100799.41
2023-05-20T07:08:27.791Z,100797.31
2023-05-20T07:10:57.234Z,100787.06
2023-05-20T07:13:26.288Z,100794.22
2023-05-20T07:15:54.440Z,100795.09
2023-05-20T07:18:22.303Z,100801.53
2023-05-20T07:20:57.078Z,100799.41
2023-05-20T07:23:46.278Z,100801.56
2023-05-20T07:26:14.028Z,100801.66
2023-05-20T07:28:41.963Z,100792.94
2023-05-20T07:31:09.666Z,100800.81
2023-05-20T07:33:43.049Z,100797.31
2023-05-20T07:36:11.606Z,100774.53
2023-05-20T07:38:56.541Z,100787.00
2023-05-20T07:41:32.046Z,100788.81
2023-05-20T07:44:02.106Z,100785.31
2023-05-20T07:46:29.970Z,100781.81
2023-05-20T07:48:57.703Z,100772.91
2023-05-20T07:51:25.520Z,100775.69
2023-05-20T07:53:53.811Z,100760.81
2023-05-20T07:56:22.139Z,100762.22
2023-05-20T07:58:55.960Z,100764.03
2023-05-20T08:01:27.063Z,100747.56
2023-05-20T08:03:56.058Z,100772.03
2023-05-20T08:06:28.724Z,100779.34
2023-05-20T08:08:57.718Z,100761.16
2023-05-20T08:11:33.306Z,100765.59
2023-05-20T08:14:02.612Z,100765.69
2023-05-20T08:16:37.528Z,100768.34
2023-05-20T08:19:05.487Z,100754.16
2023-05-20T08:21:33.476Z,100768.31
2023-05-20T08:24:01.444Z,100754.13
2023-05-20T08:26:29.784Z,100749.19
2023-05-20T08:28:57.494Z,100766.53
2023-05-20T08:31:25.245Z,100760.44
2023-05-20T08:33:53.877Z,100760.88
2023-05-20T08:36:21.497Z,100759.38
2023-05-20T08:38:50.427Z,100764.72
2023-05-20T08:41:18.083Z,100767.53
2023-05-20T08:43:49.118Z,100760.69
2023-05-20T08:46:18.880Z,100752.88
2023-05-20T08:48:46.931Z,100748.53
2023-05-20T08:51:16.451Z,100767.84
2023-05-20T08:53:44.231Z,100760.84
2023-05-20T08:56:12.766Z,100779.06
2023-05-20T08:58:40.358Z,100765.66
2023-05-20T09:01:08.501Z,100766.28
2023-05-20T09:03:36.155Z,100767.09
2023-05-20T09:06:06.713Z,100776.63
2023-05-20T09:08:34.872Z,100769.72
2023-05-20T09:11:03.609Z,100762.81
2023-05-20T09:13:32.905Z,100753.25
2023-05-20T09:16:02.133Z,100775.16
2023-05-20T09:18:31.672Z,100776.19
2023-05-20T09:21:07.195Z,100766.72
2023-05-20T09:23:38.690Z,100786.88
2023-05-20T09:26:06.949Z,100775.44
2023-05-20T09:28:36.226Z,100764.84
2023-05-20T09:31:05.921Z,100782.19
2023-05-20T09:33:36.115Z,100779.53
2023-05-20T09:36:05.320Z,100782.09
2023-05-20T09:38:38.334Z,100781.19
2023-05-20T09:41:08.872Z,100767.28
2023-05-20T09:43:37.476Z,100773.47
2023-05-20T09:46:05.796Z,100788.28
2023-05-20T09:48:36.451Z,100786.34
2023-05-20T09:51:05.762Z,100786.97
2023-05-20T09:53:33.759Z,100786.66
2023-05-20T09:56:01.648Z,100767.09
2023-05-20T09:58:30.249Z,100779.19
2023-05-20T10:00:58.047Z,100772.78
2023-05-20T10:03:28.208Z,100788.53
2023-05-20T10:06:11.153Z,100791.06
2023-05-20T10:08:57.502Z,100792.69
2023-05-20T10:12:04.489Z,100778.97
2023-05-20T10:14:32.058Z,100793.56
2023-05-20T10:17:40.121Z,100800.44
2023-05-20T10:20:14.812Z,100804.91
2023-05-20T10:22:42.521Z,100793.81
2023-05-20T10:25:13.281Z,100802.81
2023-05-20T10:27:48.826Z,100806.72
2023-05-20T10:30:22.102Z,100808.78
2023-05-20T10:33:00.818Z,100802.34
2023-05-20T10:35:28.930Z,100801.34
2023-05-20T10:38:12.117Z,100804.91
2023-05-20T10:40:40.953Z,100799.41
2023-05-20T10:43:12.326Z,100811.16
2023-05-20T10:45:53.716Z,100801.06
2023-05-20T10:48:33.123Z,100818.69
2023-05-20T10:51:06.586Z,100805.88
2023-05-20T10:53:41.601Z,100797.75
2023-05-20T10:56:28.398Z,100814.09
2023-05-20T10:58:56.449Z,100807.56
2023-05-20T11:01:26.813Z,100801.72
2023-05-20T11:03:57.972Z,100806.16
2023-05-20T11:06:28.558Z,100797.38
2023-05-20T11:09:03.821Z,100802.44
2023-05-20T11:11:31.590Z,100812.56
2023-05-20T11:14:00.802Z,100796.56
2023-05-20T11:16:28.503Z,100809.38
2023-05-20T11:18:56.162Z,100811.69
2023-05-20T11:21:23.924Z,100812.38
2023-05-20T11:23:52.476Z,100815.72
2023-05-20T11:26:21.355Z,100806.72
2023-05-20T11:28:49.121Z,100809.22
2023-05-20T11:31:17.029Z,100805.59
2023-05-20T11:33:44.974Z,100815.13
2023-05-20T11:36:26.403Z,100821.00
2023-05-20T11:38:58.104Z,100801.78
2023-05-20T11:41:27.062Z,100814.03
2023-05-20T11:44:01.385Z,100799.19
2023-05-20T11:46:29.318Z,100814.97
2023-05-20T11:48:58.092Z,100807.97
2023-05-20T11:51:30.593Z,100787.00
2023-05-20T11:54:05.877Z,100808.00
2023-05-20T11:56:37.382Z,100817.53
2023-05-20T11:59:06.726Z,100807.78
2023-05-20T12:01:43.649Z,100821.88
2023-05-20T12:04:15.409Z,100821.22
2023-05-20T12:06:44.267Z,100798.03
2023-05-20T12:09:12.023Z,100816.78
2023-05-20T12:11:44.870Z,100804.63
2023-05-20T12:14:12.810Z,100796.22
2023-05-20T12:16:40.512Z,100811.44
2023-05-20T12:19:09.562Z,100816.19
2023-05-20T12:21:37.395Z,100806.81
2023-05-20T12:24:07.236Z,100799.09
2023-05-20T12:26:35.727Z,100788.78
2023-05-20T12:29:03.588Z,100797.66
2023-05-20T12:31:33.103Z,100799.47
2023-05-20T12:34:02.865Z,100784.53
2023-05-20T12:36:30.536Z,100783.63
2023-05-20T12:38:58.083Z,100796.69
2023-05-20T12:41:26.152Z,100801.81
2023-05-20T12:43:54.401Z,100801.50
2023-05-20T12:46:22.256Z,100804.69
2023-05-20T12:48:50.069Z,100799.28
2023-05-20T12:51:17.783Z,100793.81
2023-05-20T12:53:45.426Z,100794.56
2023-05-20T12:56:13.028Z,100789.94
2023-05-20T12:58:40.776Z,100802.88
2023-05-20T13:01:08.376Z,100799.97
2023-05-20T13:03:36.013Z,100806.75
2023-05-20T13:06:04.789Z,100804.00
2023-05-20T13:08:32.573Z,100805.44
2023-05-20T13:11:00.182Z,100790.34
2023-05-20T13:13:27.771Z,100803.25
2023-05-20T13:15:55.478Z,100791.69
2023-05-20T13:18:23.150Z,100797.94
2023-05-20T13:20:50.821Z,100794.47
2023-05-20T13:23:18.829Z,100806.75
2023-05-20T13:25:46.927Z,100788.56
2023-05-20T13:28:18.546Z,100803.56
2023-05-20T13:30:46.530Z,100808.13
2023-05-20T13:33:14.128Z,100804.50
2023-05-20T13:35:42.098Z,100808.94
2023-05-20T13:38:10.428Z,100807.00
2023-05-20T13:40:38.076Z,100806.75
2023-05-20T13:43:05.703Z,100818.78
2023-05-20T13:45:33.276Z,100816.75
2023-05-20T13:48:01.018Z,100812.22
2023-05-20T13:50:30.286Z,100810.28
2023-05-20T13:52:58.229Z,100812.84
2023-05-20T13:55:26.104Z,100800.72
2023-05-20T13:57:54.471Z,100795.41
2023-05-20T14:00:22.565Z,100802.50
2023-05-20T14:02:51.463Z,100804.97
2023-05-20T14:05:20.390Z,100790.00
2023-05-20T14:07:48.398Z,100809.09
2023-05-20T14:10:16.264Z,100803.66
2023-05-20T14:12:48.100Z,100810.38
2023-05-20T14:15:15.979Z,100812.72
2023-05-20T14:17:43.678Z,100810.72
2023-05-20T14:20:11.741Z,100804.34
2023-05-20T14:22:39.536Z,100792.66
2023-05-20T14:25:07.558Z,100803.03
2023-05-20T14:27:35.535Z,100804.53
2023-05-20T14:30:03.909Z,100800.81
2023-05-20T14:32:32.575Z,100797.94
2023-05-20T14:35:00.274Z,100801.41
2023-05-20T14:37:28.295Z,100800.34
2023-05-20T14:39:56.262Z,100792.34
2023-05-20T14:42:24.057Z,100787.84
2023-05-20T14:44:51.774Z,100803.56
2023-05-20T14:47:22.308Z,100785.97
2023-05-20T14:49:50.333Z,100796.47
2023-05-20T14:52:18.794Z,100791.97
2023-05-20T14:54:46.501Z,100784.06
2023-05-20T14:57:16.027Z,100798.94
2023-05-20T14:59:43.969Z,100795.44
2023-05-20T15:04:40.872Z,100792.50
2023-05-20T15:07:08.504Z,100781.44
2023-05-20T15:09:36.195Z,100782.31
2023-05-20T15:12:04.231Z,100789.50
2023-05-20T15:14:31.758Z,100768.63
2023-05-20T15:16:59.448Z,100783.53
2023-05-20T15:19:28.562Z,100778.38
2023-05-20T15:21:56.446Z,100780.09
2023-05-20T15:24:23.931Z,100777.47
2023-05-20T15:26:53.044Z,100764.13
2023-05-20T15:29:21.419Z,100784.06
2023-05-20T15:31:49.270Z,100776.09
2023-05-20T15:34:18.024Z,100780.38
2023-05-20T15:36:45.826Z,100773.47
2023-05-20T15:39:13.572Z,100768.25
2023-05-20T15:41:42.550Z,100764.91
2023-05-20T15:44:10.433Z,100757.06
2023-05-20T15:46:38.271Z,100771.94
2023-05-20T15:49:06.757Z,100764.81
2023-05-20T15:51:34.339Z,100763.88
2023-05-20T15:54:01.984Z,100746.19
2023-05-20T15:56:30.191Z,100762.59
2023-05-20T15:58:57.796Z,100766.72
2023-05-20T16:01:27.121Z,100763.06
2023-05-20T16:03:57.792Z,100755.94
2023-05-20T16:06:26.635Z,100748.91
2023-05-20T16:08:54.199Z,100750.28
2023-05-20T16:11:22.269Z,100753.09
2023-05-20T16:13:49.798Z,100761.69
2023-05-20T16:16:17.459Z,100761.66
2023-05-20T16:18:45.264Z,100754.56
2023-05-20T16:21:13.008Z,100754.56
2023-05-20T16:23:40.624Z,100760.56
2023-05-20T16:26:08.307Z,100764.84
2023-05-20T16:28:35.930Z,100753.44
2023-05-20T16:31:04.091Z,100761.34
2023-05-20T16:33:31.807Z,100756.75
2023-05-20T16:35:59.399Z,100764.50
2023-05-20T16:38:26.928Z,100754.00
2023-05-20T16:40:54.551Z,100753.84
2023-05-20T16:43:22.108Z,100771.16
2023-05-20T16:45:49.783Z,100774.53
2023-05-20T16:48:17.588Z,100769.19
2023-05-20T16:50:45.303Z,100769.72
2023-05-20T16:53:14.983Z,100783.63
2023-05-20T16:55:44.032Z,100777.28
2023-05-20T16:58:11.611Z,100776.19
2023-05-20T17:00:39.219Z,100783.03
2023-05-20T17:03:06.821Z,100788.94
2023-05-20T17:05:34.488Z,100781.75
2023-05-20T17:08:02.202Z,100793.81
2023-05-20T17:10:29.796Z,100797.13
2023-05-20T17:12:57.492Z,100784.66
2023-05-20T17:15:25.633Z,100786.44
2023-05-20T17:17:53.291Z,100786.25
2023-05-20T17:20:21.119Z,100789.59
2023-05-20T17:22:48.795Z,100785.13
2023-05-20T17:25:16.362Z,100778.84
2023-05-20T17:27:43.878Z,100791.09
2023-05-20T17:30:11.933Z,100780.34
2023-05-20T17:32:40.684Z,100796.00
2023-05-20T17:35:09.244Z,100786.28
2023-05-20T17:37:37.815Z,100798.41
2023-05-20T17:40:08.677Z,100779.00
2023-05-20T17:42:36.737Z,100783.16
2023-05-20T17:45:04.869Z,100796.16
2023-05-20T17:47:33.925Z,100801.19
2023-05-20T17:50:02.727Z,100792.41
2023-05-20T17:52:32.326Z,100805.16
2023-05-20T17:55:00.223Z,100787.47
2023-05-20T17:57:28.512Z,100793.44
2023-05-20T17:59:56.547Z,100803.69
2023-05-20T18:02:24.342Z,100811.34
2023-05-20T18:04:52.372Z,100800.81
2023-05-20T18:07:20.698Z,100796.28
2023-05-20T18:09:48.617Z,100792.66
2023-05-20T18:12:16.485Z,100785.44
2023-05-20T18:14:44.565Z,100784.38
2023-05-20T18:17:12.784Z,100775.09
2023-05-20T18:19:40.708Z,100775.91
2023-05-20T18:22:08.753Z,100764.09
2023-05-20T18:24:36.310Z,100767.44
2023-05-20T18:27:04.039Z,100774.94
2023-05-20T18:29:31.910Z,100777.41
2023-05-20T18:31:59.862Z,100779.75
2023-05-20T18:34:28.375Z,100764.56
2023-05-20T18:36:56.199Z,100763.59
2023-05-20T18:39:23.914Z,100762.56
2023-05-20T18:41:51.512Z,100774.78
2023-05-20T18:44:19.538Z,100774.72
2023-05-20T18:46:47.662Z,100764.25
2023-05-20T18:49:15.725Z,100758.22
2023-05-20T18:51:43.312Z,100757.34
2023-05-20T18:54:11.142Z,100745.97
2023-05-20T18:56:39.070Z,100757.28
2023-05-20T18:59:06.641Z,100757.16
2023-05-20T19:01:36.650Z,100750.31
2023-05-20T19:04:04.666Z,100755.38
2023-05-20T19:06:35.311Z,100753.50
2023-05-20T19:09:03.847Z,100752.34
2023-05-20T19:11:31.768Z,100733.97
2023-05-20T19:13:59.517Z,100740.88
2023-05-20T19:16:27.280Z,100737.31
2023-05-20T19:18:54.859Z,100730.25
2023-05-20T19:21:22.713Z,100714.50
2023-05-20T19:23:50.360Z,100710.72
2023-05-20T19:26:18.212Z,100723.88
2023-05-20T19:28:46.782Z,100719.56
2023-05-20T19:31:21.159Z,100714.28
2023-05-20T19:33:50.276Z,100710.72
2023-05-20T19:36:18.133Z,100705.44
2023-05-20T19:38:46.913Z,100707.22
2023-05-20T19:41:14.593Z,100704.50
2023-05-20T19:43:42.358Z,100701.94
2023-05-20T19:46:10.035Z,100707.91
2023-05-20T19:48:37.619Z,100691.47
2023-05-20T19:51:05.371Z,100686.41
2023-05-20T19:53:33.130Z,100694.13
2023-05-20T19:56:01.120Z,100689.03
2023-05-20T19:58:29.167Z,100691.41
2023-05-20T20:00:56.843Z,100687.13
2023-05-20T20:03:24.670Z,100678.19
2023-05-20T20:05:53.044Z,100681.97
2023-05-20T20:08:20.860Z,100684.63
2023-05-20T20:10:49.428Z,100683.75
2023-05-20T20:13:17.083Z,100682.84
2023-05-20T20:15:44.704Z,100678.59
2023-05-20T20:18:12.581Z,100683.00
2023-05-20T20:20:40.864Z,100676.97
2023-05-20T20:23:09.604Z,100670.84
2023-05-20T20:25:42.770Z,100668.25
2023-05-20T20:28:11.367Z,100666.56
2023-05-20T20:30:39.307Z,100666.00
2023-05-20T20:33:09.738Z,100675.59
2023-05-20T20:35:38.279Z,100666.19
2023-05-20T20:38:10.205Z,100666.19
2023-05-20T20:40:42.713Z,100665.28
2023-05-20T20:43:20.437Z,100659.84
2023-05-20T20:45:53.278Z,100631.94
2023-05-20T20:48:26.888Z,100643.13
2023-05-20T20:50:55.131Z,100643.75
2023-05-20T20:53:22.891Z,100639.25
2023-05-20T20:55:51.640Z,100644.25
2023-05-20T20:58:19.436Z,100636.56
2023-05-20T21:00:48.968Z,100643.22
2023-05-20T21:03:16.955Z,100636.25
2023-05-20T21:05:44.742Z,100631.03
2023-05-20T21:08:13.391Z,100627.44
2023-05-20T21:10:41.218Z,100616.69
2023-05-20T21:13:09.375Z,100621.06
2023-05-20T21:15:37.333Z,100629.00
2023-05-20T21:18:05.100Z,100622.72
2023-05-20T21:20:32.854Z,100618.31
2023-05-20T21:23:00.864Z,100616.63
2023-05-20T21:25:28.526Z,100611.25
2023-05-20T21:27:56.194Z,100608.38
2023-05-20T21:30:24.685Z,100612.03
2023-05-20T21:32:52.371Z,100589.06
2023-05-20T21:35:20.311Z,100590.94
2023-05-20T21:37:48.011Z,100604.09
2023-05-20T21:40:15.936Z,100600.63
2023-05-20T21:42:45.021Z,100598.81
2023-05-20T21:45:12.714Z,100591.91
2023-05-20T21:47:40.533Z,100584.84
2023-05-20T21:50:08.694Z,100592.63
2023-05-20T21:52:36.556Z,100584.03
2023-05-20T21:55:04.450Z,100582.97
2023-05-20T21:57:32.288Z,100582.28
2023-05-20T22:00:00.049Z,100583.97
2023-05-20T22:02:27.927Z,100587.44
2023-05-20T22:04:57.782Z,100583.97
2023-05-20T22:07:25.682Z,100579.63
2023-05-20T22:09:53.678Z,100566.50
2023-05-20T22:12:21.716Z,100572.78
2023-05-20T22:14:49.804Z,100575.38
2023-05-20T22:17:18.041Z,100559.84
2023-05-20T22:19:45.637Z,100569.41
2023-05-20T22:22:13.410Z,100563.38
2023-05-20T22:24:41.044Z,100561.66
2023-05-20T22:27:08.639Z,100550.44
2023-05-20T22:29:36.432Z,100552.19
2023-05-20T22:32:04.315Z,100547.59
2023-05-20T22:34:32.402Z,100550.44
2023-05-20T22:37:00.174Z,100536.47
2023-05-20T22:39:27.827Z,100546.97
2023-05-20T22:41:55.418Z,100542.69
2023-05-20T22:44:23.024Z,100528.69
2023-05-20T22:46:50.674Z,100533.31
2023-05-20T22:49:19.048Z,100528.19
2023-05-20T22:51:46.709Z,100521.78
2023-05-20T22:54:14.353Z,100526.31
2023-05-20T22:56:42.160Z,100515.75
2023-05-20T22:59:09.822Z,100527.25
2023-05-20T23:01:38.693Z,100514.91
2023-05-20T23:04:06.600Z,100525.41
2023-05-20T23:06:38.288Z,100516.78
2023-05-20T23:09:06.862Z,100490.66
2023-05-20T23:11:34.483Z,100509.06
2023-05-20T23:14:02.176Z,100512.72
2023-05-20T23:16:29.879Z,100518.75
2023-05-20T23:18:57.638Z,100512.72
2023-05-20T23:21:28.439Z,100510.09
2023-05-20T23:23:56.060Z,100491.59
2023-05-20T23:26:24.177Z,100489.97
2023-05-20T23:28:51.926Z,100502.22
2023-05-20T23:31:19.472Z,100488.22
2023-05-20T23:33:47.151Z,100505.69
2023-05-20T23:36:14.845Z,100489.97
2023-05-20T23:38:42.567Z,100489.94
2023-05-20T23:41:10.234Z,100487.34
2023-05-20T23:43:37.912Z,100473.34
2023-05-20T23:46:05.833Z,100497.06
2023-05-20T23:48:33.716Z,100477.94
2023-05-20T23:51:01.424Z,100477.09
2023-05-20T23:53:29.153Z,100491.03
2023-05-20T23:55:56.760Z,100477.94
2023-05-20T23:58:24.772Z,100485.09
